Time;durP1;ratioP1;P1;durP2;ratioP2;P2;SDS_P1;SDS_P2;PMS_P1;PMS_P2;Temp;Humidity;BMP_temperature;BMP_pressure;BME280_temperature;BME280_humidity;BME280_pressure;Samples;Min_cycle;Max_cycle;Signal;HPM_P1;HPM_P2
2023/09/10 00:03:14;;;;;;;8.60;6.18;;;;;;;;;;10340386;28;20765;-84
2023/09/10 00:08:18;;;;;;;9.20;6.57;;;;;;;;;;10342489;28;20482;-85
2023/09/10 00:13:20;;;;;;;10.27;6.60;;;;;;;;;;10325978;28;20520;-84
2023/09/10 00:18:23;;;;;;;8.27;6.20;;;;;;;;;;10337870;28;20521;-84
2023/09/10 00:23:27;;;;;;;7.47;6.40;;;;;;;;;;10338148;28;21183;-85
2023/09/10 00:28:30;;;;;;;8.40;6.73;;;;;;;;;;10337427;28;20467;-85
2023/09/10 00:33:32;;;;;;;8.70;7.40;;;;;;;;;;10336483;28;20505;-84
2023/09/10 00:38:36;;;;;;;8.27;6.97;;;;;;;;;;10342440;28;20455;-83
2023/09/10 00:43:38;;;;;;;9.05;6.70;;;;;;;;;;10327908;28;20452;-84
2023/09/10 00:48:40;;;;;;;9.88;7.00;;;;;;;;;;10339660;28;20424;-84
2023/09/10 00:53:44;;;;;;;8.60;6.60;;;;;;;;;;10336572;28;21325;-84
2023/09/10 00:58:47;;;;;;;7.17;6.40;;;;;;;;;;10336172;28;21015;-84
2023/09/10 01:03:49;;;;;;;7.78;6.75;;;;;;;;;;10332402;28;20920;-84
2023/09/10 01:08:53;;;;;;;9.00;6.63;;;;;;;;;;10331360;28;20481;-84
2023/09/10 01:14:07;;;;;;;7.38;6.10;;;;;;;;;;10342352;28;20421;-84
2023/09/10 01:19:27;;;;;;;7.60;6.13;;;;;;;;;;10335915;28;20452;-84
2023/09/10 01:24:44;;;;;;;6.30;5.70;;;;;;;;;;10338486;28;20446;-84
2023/09/10 01:29:47;;;;;;;6.57;5.75;;;;;;;;;;10336559;28;20925;-84
2023/09/10 01:34:54;;;;;;;7.37;6.00;;;;;;;;;;10336539;28;20516;-84
2023/09/10 01:40:01;;;;;;;7.05;5.72;;;;;;;;;;10340838;28;20499;-84
2023/09/10 01:45:05;;;;;;;7.13;6.03;;;;;;;;;;10341146;28;20487;-84
2023/09/10 01:50:08;;;;;;;7.63;6.70;;;;;;;;;;10342371;28;20484;-84
2023/09/10 01:55:12;;;;;;;8.50;6.70;;;;;;;;;;10347303;28;20502;-84
2023/09/10 02:00:15;;;;;;;8.73;6.80;;;;;;;;;;10339284;28;20458;-84
2023/09/10 02:05:18;;;;;;;7.97;6.80;;;;;;;;;;10275555;28;1891121;-84
2023/09/10 02:10:21;;;;;;;8.95;7.00;;;;;;;;;;10340209;28;20424;-84
2023/09/10 02:15:24;;;;;;;8.95;6.50;;;;;;;;;;10341172;28;20488;-84
2023/09/10 02:20:26;;;;;;;7.77;6.50;;;;;;;;;;10340174;28;20511;-84
2023/09/10 02:25:30;;;;;;;6.93;6.22;;;;;;;;;;10341672;28;20900;-84
2023/09/10 02:30:32;;;;;;;8.68;6.95;;;;;;;;;;10341444;28;20412;-84
2023/09/10 02:35:34;;;;;;;7.45;6.60;;;;;;;;;;10338593;28;20413;-84
2023/09/10 02:40:38;;;;;;;9.10;7.03;;;;;;;;;;10340149;28;20484;-84
2023/09/10 02:45:40;;;;;;;8.43;7.30;;;;;;;;;;10337093;28;20418;-83
2023/09/10 02:50:43;;;;;;;8.03;6.73;;;;;;;;;;10340404;28;20532;-83
2023/09/10 02:55:46;;;;;;;7.68;6.70;;;;;;;;;;10339039;28;20484;-84
2023/09/10 03:00:48;;;;;;;7.50;6.70;;;;;;;;;;10338191;28;20463;-84
2023/09/10 03:05:51;;;;;;;7.82;6.45;;;;;;;;;;10341975;28;20850;-84
2023/09/10 03:10:54;;;;;;;7.13;6.43;;;;;;;;;;10338980;28;20474;-84
2023/09/10 03:15:57;;;;;;;7.43;6.35;;;;;;;;;;10339705;28;20409;-84
2023/09/10 03:21:02;;;;;;;9.40;6.27;;;;;;;;;;10342149;28;20995;-85
2023/09/10 03:26:06;;;;;;;7.45;6.13;;;;;;;;;;10335944;28;20441;-84
2023/09/10 03:31:08;;;;;;;8.30;6.40;;;;;;;;;;10340059;28;20475;-83
2023/09/10 03:36:11;;;;;;;7.13;6.43;;;;;;;;;;10339434;28;20415;-84
2023/09/10 03:41:15;;;;;;;7.22;6.53;;;;;;;;;;10330838;28;20910;-85
2023/09/10 03:46:17;;;;;;;7.78;6.15;;;;;;;;;;10334336;28;20413;-84
2023/09/10 03:51:19;;;;;;;8.10;6.45;;;;;;;;;;10339846;28;20412;-84
2023/09/10 03:56:24;;;;;;;7.87;7.00;;;;;;;;;;10343866;28;20473;-84
2023/09/10 04:01:26;;;;;;;10.93;7.03;;;;;;;;;;10336359;28;20487;-84
2023/09/10 04:06:28;;;;;;;8.90;7.45;;;;;;;;;;10338357;28;20479;-84
2023/09/10 04:11:33;;;;;;;10.13;7.55;;;;;;;;;;10337817;28;20480;-84
2023/09/10 04:16:35;;;;;;;10.77;7.60;;;;;;;;;;10340225;28;20414;-85
2023/09/10 04:21:37;;;;;;;8.60;6.93;;;;;;;;;;10338914;28;20413;-84
2023/09/10 04:26:42;;;;;;;7.68;6.78;;;;;;;;;;10334574;28;20899;-84
2023/09/10 04:31:44;;;;;;;8.40;6.90;;;;;;;;;;10340888;28;20415;-84
2023/09/10 04:36:47;;;;;;;7.82;6.88;;;;;;;;;;10335247;28;20521;-84
2023/09/10 04:41:51;;;;;;;8.57;7.30;;;;;;;;;;10334488;28;20504;-84
2023/09/10 04:46:54;;;;;;;8.27;6.43;;;;;;;;;;10331694;28;20447;-84
2023/09/10 04:51:57;;;;;;;9.83;6.70;;;;;;;;;;10339058;28;20407;-84
2023/09/10 04:57:00;;;;;;;7.47;6.50;;;;;;;;;;10340220;28;20470;-84
2023/09/10 05:02:05;;;;;;;8.38;6.80;;;;;;;;;;10338497;28;20559;-83
2023/09/10 05:07:07;;;;;;;8.13;6.82;;;;;;;;;;10341224;28;20409;-83
2023/09/10 05:12:10;;;;;;;7.95;6.55;;;;;;;;;;10327385;28;20425;-84
2023/09/10 05:17:13;;;;;;;7.87;6.10;;;;;;;;;;10334791;28;20907;-84
2023/09/10 05:22:16;;;;;;;8.00;6.45;;;;;;;;;;10333734;28;20446;-84
2023/09/10 05:27:19;;;;;;;7.35;6.40;;;;;;;;;;10331612;28;20993;-84
2023/09/10 05:32:22;;;;;;;7.28;6.35;;;;;;;;;;10329647;28;20448;-84
2023/09/10 05:37:24;;;;;;;7.63;6.45;;;;;;;;;;10322678;28;20507;-83
2023/09/10 05:42:28;;;;;;;7.15;6.45;;;;;;;;;;10330533;28;20497;-83
2023/09/10 05:47:30;;;;;;;8.07;6.40;;;;;;;;;;10335664;28;20494;-83
2023/09/10 05:52:32;;;;;;;10.52;6.22;;;;;;;;;;10333783;28;21228;-83
2023/09/10 05:57:36;;;;;;;10.00;6.73;;;;;;;;;;10336436;28;20447;-83
2023/09/10 06:02:39;;;;;;;8.27;6.50;;;;;;;;;;10335373;28;20443;-83
2023/09/10 06:07:41;;;;;;;7.70;6.60;;;;;;;;;;10338163;28;20893;-84
2023/09/10 06:12:45;;;;;;;7.15;6.38;;;;;;;;;;10338109;28;20448;-83
2023/09/10 06:17:47;;;;;;;7.77;6.33;;;;;;;;;;10339167;28;20455;-85
2023/09/10 06:22:50;;;;;;;7.65;6.72;;;;;;;;;;10341465;28;20424;-84
2023/09/10 06:27:54;;;;;;;8.43;6.80;;;;;;;;;;10341461;28;20397;-84
2023/09/10 06:32:57;;;;;;;8.73;6.57;;;;;;;;;;10342601;28;20454;-84
2023/09/10 06:38:00;;;;;;;7.53;6.73;;;;;;;;;;10341044;28;20470;-84
2023/09/10 06:43:05;;;;;;;9.25;6.18;;;;;;;;;;10327016;28;20460;-86
2023/09/10 06:48:08;;;;;;;10.20;7.10;;;;;;;;;;10333447;28;20442;-84
2023/09/10 06:53:10;;;;;;;8.00;6.60;;;;;;;;;;10333941;28;20448;-84
2023/09/10 06:58:17;;;;;;;7.22;6.40;;;;;;;;;;10332931;28;20844;-85
2023/09/10 07:03:19;;;;;;;8.32;6.28;;;;;;;;;;10334927;28;20416;-84
2023/09/10 07:08:21;;;;;;;7.10;6.30;;;;;;;;;;10336599;28;20451;-84
2023/09/10 07:13:25;;;;;;;7.75;6.38;;;;;;;;;;10339426;28;20494;-84
2023/09/10 07:18:32;;;;;;;9.73;6.80;;;;;;;;;;10339136;28;20527;-84
2023/09/10 07:23:35;;;;;;;7.10;6.40;;;;;;;;;;10339584;28;20403;-84
2023/09/10 07:28:38;;;;;;;7.05;6.35;;;;;;;;;;10332248;28;20438;-84
2023/09/10 07:33:41;;;;;;;6.63;5.93;;;;;;;;;;10334497;28;20482;-84
2023/09/10 07:38:43;;;;;;;8.90;6.30;;;;;;;;;;10338044;28;20513;-85
2023/09/10 07:43:47;;;;;;;8.95;6.18;;;;;;;;;;10337379;28;20447;-83
2023/09/10 07:48:49;;;;;;;8.43;6.07;;;;;;;;;;10331860;28;20452;-83
2023/09/10 07:53:52;;;;;;;6.57;5.70;;;;;;;;;;10336900;28;20437;-83
2023/09/10 07:58:56;;;;;;;8.50;5.90;;;;;;;;;;10337887;28;20452;-82
2023/09/10 08:03:58;;;;;;;7.77;5.50;;;;;;;;;;10336955;28;20446;-82
2023/09/10 08:09:00;;;;;;;22.83;6.33;;;;;;;;;;10336017;28;20951;-83
2023/09/10 08:14:04;;;;;;;8.10;5.60;;;;;;;;;;10341547;28;20442;-82
2023/09/10 08:19:06;;;;;;;5.90;5.30;;;;;;;;;;10333239;28;20467;-83
2023/09/10 08:24:09;;;;;;;5.80;5.18;;;;;;;;;;10331153;28;20508;-84
2023/09/10 08:29:12;;;;;;;6.83;4.53;;;;;;;;;;10342370;28;20407;-83
2023/09/10 08:34:15;;;;;;;6.53;4.80;;;;;;;;;;10335543;28;20417;-82
2023/09/10 08:39:17;;;;;;;5.40;4.87;;;;;;;;;;10328712;28;20459;-83
2023/09/10 08:44:23;;;;;;;4.40;4.00;;;;;;;;;;10332087;28;20503;-85
2023/09/10 08:49:28;;;;;;;5.73;5.07;;;;;;;;;;10330107;28;20530;-83
2023/09/10 08:54:30;;;;;;;6.88;4.82;;;;;;;;;;10332856;28;20675;-82
2023/09/10 08:59:35;;;;;;;6.82;4.47;;;;;;;;;;10335919;28;20462;-84
2023/09/10 09:04:38;;;;;;;5.05;4.55;;;;;;;;;;10324312;28;20484;-86
2023/09/10 09:09:45;;;;;;;5.50;4.47;;;;;;;;;;10324583;28;21021;-84
2023/09/10 09:14:51;;;;;;;4.82;4.32;;;;;;;;;;10331544;28;20976;-84
2023/09/10 09:19:56;;;;;;;6.00;4.72;;;;;;;;;;10319220;28;20525;-84
2023/09/10 09:24:59;;;;;;;7.30;4.78;;;;;;;;;;10323379;28;21011;-84
2023/09/10 09:30:05;;;;;;;5.03;4.53;;;;;;;;;;10331562;28;20543;-83
2023/09/10 09:35:10;;;;;;;5.03;4.60;;;;;;;;;;10317801;28;20555;-84
2023/09/10 09:40:13;;;;;;;5.45;4.00;;;;;;;;;;10317838;28;20922;-83
2023/09/10 09:45:21;;;;;;;5.13;4.22;;;;;;;;;;10329851;28;20510;-83
2023/09/10 09:50:26;;;;;;;6.78;4.00;;;;;;;;;;10312776;28;20520;-83
2023/09/10 09:55:28;;;;;;;6.20;4.10;;;;;;;;;;10329134;28;20872;-83
2023/09/10 10:00:33;;;;;;;4.80;4.10;;;;;;;;;;10329850;28;20460;-84
2023/09/10 10:05:36;;;;;;;4.73;4.33;;;;;;;;;;10324408;28;21010;-84
2023/09/10 10:10:47;;;;;;;4.87;4.13;;;;;;;;;;10326256;28;20440;-83
2023/09/10 10:15:52;;;;;;;4.40;4.00;;;;;;;;;;10325231;28;20902;-84
2023/09/10 10:20:56;;;;;;;4.23;3.83;;;;;;;;;;10329143;28;20873;-84
2023/09/10 10:26:04;;;;;;;4.67;4.27;;;;;;;;;;10325243;28;20433;-82
2023/09/10 10:31:14;;;;;;;4.47;3.97;;;;;;;;;;10322062;28;20464;-84
2023/09/10 10:36:26;;;;;;;4.97;4.47;;;;;;;;;;10314136;28;20452;-84
2023/09/10 10:41:32;;;;;;;4.82;4.38;;;;;;;;;;10323704;28;20919;-84
2023/09/10 10:46:38;;;;;;;5.07;4.57;;;;;;;;;;10326302;28;20456;-84
2023/09/10 10:51:45;;;;;;;5.28;4.45;;;;;;;;;;10326625;28;20522;-84
2023/09/10 10:56:48;;;;;;;5.10;4.07;;;;;;;;;;10321699;28;20437;-84
2023/09/10 11:02:15;;;;;;;5.13;4.00;;;;;;;;;;10324894;28;20894;-84
2023/09/10 11:07:18;;;;;;;5.25;4.05;;;;;;;;;;10334942;28;20478;-83
2023/09/10 11:12:21;;;;;;;4.50;4.10;;;;;;;;;;10321376;28;20457;-83
2023/09/10 11:17:25;;;;;;;4.60;4.10;;;;;;;;;;10328821;28;21009;-83
2023/09/10 11:22:28;;;;;;;4.80;4.15;;;;;;;;;;10322369;28;20533;-84
2023/09/10 11:27:30;;;;;;;4.88;4.07;;;;;;;;;;10326528;28;20503;-84
2023/09/10 11:32:34;;;;;;;4.32;3.92;;;;;;;;;;10323585;28;20512;-83
2023/09/10 11:37:38;;;;;;;5.47;4.00;;;;;;;;;;10331379;28;20532;-84
2023/09/10 11:42:43;;;;;;;6.43;4.25;;;;;;;;;;10317922;28;20464;-85
2023/09/10 11:47:48;;;;;;;4.50;4.10;;;;;;;;;;10310238;28;20932;-84
2023/09/10 11:52:51;;;;;;;5.88;4.28;;;;;;;;;;10311163;28;20488;-92
2023/09/10 11:57:53;;;;;;;4.30;3.85;;;;;;;;;;10323904;28;20425;-89
2023/09/10 12:02:58;;;;;;;5.20;4.05;;;;;;;;;;10318882;28;20480;-87
2023/09/10 12:08:01;;;;;;;5.63;4.28;;;;;;;;;;10322197;28;20451;-85
2023/09/10 12:13:05;;;;;;;6.55;5.30;;;;;;;;;;10314199;28;20505;-86
2023/09/10 12:18:09;;;;;;;5.20;3.83;;;;;;;;;;10324168;28;20448;-86
2023/09/10 12:23:11;;;;;;;4.60;3.95;;;;;;;;;;10325903;28;20516;-85
2023/09/10 12:28:14;;;;;;;4.10;3.70;;;;;;;;;;10322830;28;20527;-85
2023/09/10 12:33:20;;;;;;;7.88;4.20;;;;;;;;;;10315456;28;20464;-85
2023/09/10 12:38:22;;;;;;;4.68;4.18;;;;;;;;;;10322391;28;20446;-85
2023/09/10 12:43:25;;;;;;;5.88;4.80;;;;;;;;;;10323335;28;20982;-86
2023/09/10 12:48:30;;;;;;;6.32;4.25;;;;;;;;;;10309843;28;20456;-84
2023/09/10 12:53:35;;;;;;;5.27;4.10;;;;;;;;;;10313076;28;20454;-84
2023/09/10 12:58:37;;;;;;;4.45;4.03;;;;;;;;;;10320325;28;20661;-84
2023/09/10 13:03:41;;;;;;;4.27;3.70;;;;;;;;;;10314622;28;20492;-84
2023/09/10 13:08:43;;;;;;;4.05;3.65;;;;;;;;;;10333240;28;20432;-84
2023/09/10 13:13:45;;;;;;;4.97;3.77;;;;;;;;;;10327603;28;20448;-83
2023/09/10 13:18:49;;;;;;;4.60;3.72;;;;;;;;;;10319157;28;20926;-84
2023/09/10 13:23:51;;;;;;;4.65;3.70;;;;;;;;;;10327618;28;20487;-84
2023/09/10 13:28:53;;;;;;;6.18;3.80;;;;;;;;;;10334128;28;21177;-85
2023/09/10 13:33:57;;;;;;;4.35;3.95;;;;;;;;;;10311686;28;20483;-84
2023/09/10 13:38:59;;;;;;;4.35;3.70;;;;;;;;;;10326706;28;20509;-85
2023/09/10 13:44:02;;;;;;;5.88;3.88;;;;;;;;;;10330349;28;20455;-83
2023/09/10 13:49:09;;;;;;;5.33;3.93;;;;;;;;;;10337259;28;20427;-84
2023/09/10 13:54:11;;;;;;;5.50;3.90;;;;;;;;;;10339911;28;20472;-84
2023/09/10 13:59:14;;;;;;;3.88;3.42;;;;;;;;;;10308370;28;20513;-85
2023/09/10 14:04:18;;;;;;;4.17;3.73;;;;;;;;;;10339597;28;20505;-86
2023/09/10 14:09:20;;;;;;;4.93;3.88;;;;;;;;;;10336687;28;20448;-85
2023/09/10 14:14:22;;;;;;;4.20;3.70;;;;;;;;;;10330323;28;20456;-85
2023/09/10 14:19:26;;;;;;;6.10;3.60;;;;;;;;;;10327032;28;20444;-85
2023/09/10 14:24:29;;;;;;;4.77;3.57;;;;;;;;;;10327445;28;20448;-86
2023/09/10 14:29:31;;;;;;;4.82;4.00;;;;;;;;;;10327353;28;20520;-85
2023/09/10 14:34:35;;;;;;;4.90;3.90;;;;;;;;;;10333486;28;20452;-85
2023/09/10 14:39:38;;;;;;;4.40;3.93;;;;;;;;;;10334433;28;20433;-84
2023/09/10 14:44:40;;;;;;;4.82;4.28;;;;;;;;;;10335068;28;20903;-85
2023/09/10 14:49:44;;;;;;;5.60;3.80;;;;;;;;;;10329998;28;20458;-86
2023/09/10 14:54:46;;;;;;;4.32;3.80;;;;;;;;;;10340338;28;20421;-86
2023/09/10 14:59:48;;;;;;;4.90;3.63;;;;;;;;;;10331480;28;20480;-85
2023/09/10 15:04:52;;;;;;;4.30;3.58;;;;;;;;;;10339722;28;20523;-85
2023/09/10 15:09:54;;;;;;;4.10;3.70;;;;;;;;;;10334135;28;20490;-85
2023/09/10 15:14:57;;;;;;;6.50;3.97;;;;;;;;;;10327708;28;20503;-85
2023/09/10 15:20:00;;;;;;;5.18;4.00;;;;;;;;;;10332097;28;21461;-86
2023/09/10 15:25:03;;;;;;;4.80;3.75;;;;;;;;;;10320405;28;20440;-85
2023/09/10 15:30:07;;;;;;;4.10;3.70;;;;;;;;;;10325507;28;20960;-85
2023/09/10 15:35:10;;;;;;;7.22;4.05;;;;;;;;;;10330843;28;20451;-85
2023/09/10 15:40:13;;;;;;;5.93;3.80;;;;;;;;;;10341532;28;20428;-85
2023/09/10 15:45:15;;;;;;;4.90;3.70;;;;;;;;;;10341784;28;20449;-85
2023/09/10 15:50:19;;;;;;;3.95;3.65;;;;;;;;;;10327450;28;20479;-85
2023/09/10 15:55:21;;;;;;;4.72;3.85;;;;;;;;;;10331114;28;20409;-85
2023/09/10 16:00:24;;;;;;;4.55;3.60;;;;;;;;;;10325394;28;21291;-85
2023/09/10 16:05:27;;;;;;;4.28;3.88;;;;;;;;;;10331556;28;20947;-85
2023/09/10 16:10:30;;;;;;;5.70;4.03;;;;;;;;;;10329990;28;20440;-85
2023/09/10 16:15:33;;;;;;;5.70;4.37;;;;;;;;;;10328128;28;20425;-92
2023/09/10 16:20:37;;;;;;;4.40;4.00;;;;;;;;;;10320303;28;20515;-84
2023/09/10 16:25:40;;;;;;;5.22;3.95;;;;;;;;;;10329607;28;20444;-85
2023/09/10 16:30:44;;;;;;;6.10;4.97;;;;;;;;;;10320649;28;20448;-84
2023/09/10 16:35:47;;;;;;;4.35;3.95;;;;;;;;;;10331245;28;20419;-84
2023/09/10 16:40:54;;;;;;;4.05;3.70;;;;;;;;;;10322688;28;20456;-84
2023/09/10 16:45:56;;;;;;;5.70;3.90;;;;;;;;;;10322280;28;20435;-85
2023/09/10 16:51:00;;;;;;;4.75;4.22;;;;;;;;;;10324565;28;20444;-84
2023/09/10 16:56:02;;;;;;;5.05;4.55;;;;;;;;;;10322785;28;20505;-85
2023/09/10 17:01:05;;;;;;;5.22;4.20;;;;;;;;;;10322058;28;20464;-84
2023/09/10 17:06:09;;;;;;;5.78;4.68;;;;;;;;;;10320978;28;20535;-84
2023/09/10 17:11:11;;;;;;;4.80;4.30;;;;;;;;;;10322076;28;20483;-84
2023/09/10 17:16:15;;;;;;;5.78;4.35;;;;;;;;;;10316703;28;20913;-85
2023/09/10 17:21:19;;;;;;;7.57;4.83;;;;;;;;;;10323518;28;20458;-82
2023/09/10 17:26:21;;;;;;;5.05;4.40;;;;;;;;;;10323700;28;20405;-84
2023/09/10 17:31:24;;;;;;;8.35;4.82;;;;;;;;;;10337288;28;20888;-85
2023/09/10 17:36:28;;;;;;;6.23;4.83;;;;;;;;;;10325960;28;20439;-87
2023/09/10 17:41:30;;;;;;;4.93;4.40;;;;;;;;;;10318222;28;20460;-86
2023/09/10 17:46:33;;;;;;;9.60;4.40;;;;;;;;;;10329955;28;20464;-87
2023/09/10 17:51:36;;;;;;;6.25;5.30;;;;;;;;;;10336352;28;20409;-86
2023/09/10 17:56:39;;;;;;;8.45;5.00;;;;;;;;;;10338442;28;20488;-85
2023/09/10 18:01:41;;;;;;;5.85;4.63;;;;;;;;;;10336830;28;20933;-87
2023/09/10 18:06:47;;;;;;;6.75;4.93;;;;;;;;;;10338340;28;20448;-87
2023/09/10 18:11:49;;;;;;;7.57;4.88;;;;;;;;;;10316306;28;20511;-88
2023/09/10 18:16:53;;;;;;;7.85;5.00;;;;;;;;;;10320900;28;21007;-87
2023/09/10 18:21:57;;;;;;;6.20;4.80;;;;;;;;;;10317653;28;20895;-87
2023/09/10 18:26:59;;;;;;;9.93;5.47;;;;;;;;;;10323582;28;20515;-86
2023/09/10 18:32:02;;;;;;;16.35;6.45;;;;;;;;;;10320341;28;20491;-84
2023/09/10 18:37:06;;;;;;;7.68;5.22;;;;;;;;;;10323507;28;20980;-85
2023/09/10 18:42:08;;;;;;;10.70;5.53;;;;;;;;;;10336655;28;20456;-85
2023/09/10 18:47:10;;;;;;;8.52;5.75;;;;;;;;;;10332771;28;20452;-86
2023/09/10 18:52:15;;;;;;;8.20;5.90;;;;;;;;;;10329373;28;20898;-85
2023/09/10 18:57:17;;;;;;;9.20;6.20;;;;;;;;;;10332524;28;20444;-85
2023/09/10 19:02:19;;;;;;;7.72;6.45;;;;;;;;;;10333066;28;20536;-86
2023/09/10 19:07:23;;;;;;;9.20;6.00;;;;;;;;;;10324830;28;20970;-85
2023/09/10 19:12:25;;;;;;;7.03;5.77;;;;;;;;;;10316536;28;20460;-85
2023/09/10 19:17:27;;;;;;;7.33;6.53;;;;;;;;;;10316891;28;20921;-86
2023/09/10 19:22:33;;;;;;;9.67;6.10;;;;;;;;;;10321750;28;20450;-85
2023/09/10 19:27:36;;;;;;;7.00;6.30;;;;;;;;;;10324135;28;20483;-86
2023/09/10 19:32:40;;;;;;;10.07;6.97;;;;;;;;;;10321246;28;20456;-85
2023/09/10 19:37:43;;;;;;;9.18;8.02;;;;;;;;;;10323441;28;20480;-85
2023/09/10 19:42:46;;;;;;;9.75;7.85;;;;;;;;;;10335295;28;20521;-85
2023/09/10 19:47:48;;;;;;;10.07;8.50;;;;;;;;;;10330336;28;20416;-85
2023/09/10 19:52:52;;;;;;;12.90;7.70;;;;;;;;;;10325276;28;20432;-86
2023/09/10 19:57:54;;;;;;;11.05;7.75;;;;;;;;;;10317791;28;20448;-86
2023/09/10 20:02:56;;;;;;;9.85;7.72;;;;;;;;;;10319595;28;20461;-87
2023/09/10 20:08:00;;;;;;;8.13;7.15;;;;;;;;;;10316230;28;20456;-85
2023/09/10 20:13:02;;;;;;;12.37;8.00;;;;;;;;;;10316983;28;20452;-85
2023/09/10 20:18:05;;;;;;;9.00;7.23;;;;;;;;;;10319299;28;20487;-86
2023/09/10 20:23:09;;;;;;;10.17;7.17;;;;;;;;;;10324370;28;20462;-85
2023/09/10 20:28:12;;;;;;;9.95;7.30;;;;;;;;;;10324214;28;20456;-85
2023/09/10 20:33:14;;;;;;;9.40;7.27;;;;;;;;;;10323724;28;20448;-85
2023/09/10 20:38:18;;;;;;;9.50;6.90;;;;;;;;;;10322695;28;20440;-85
2023/09/10 20:43:20;;;;;;;8.82;7.00;;;;;;;;;;10324966;28;20826;-86
2023/09/10 20:48:23;;;;;;;8.70;6.97;;;;;;;;;;10318220;28;20511;-85
2023/09/10 20:53:26;;;;;;;8.02;7.20;;;;;;;;;;10322998;28;20510;-85
2023/09/10 20:58:30;;;;;;;7.53;6.72;;;;;;;;;;10317926;28;20456;-85
2023/09/10 21:03:32;;;;;;;9.73;7.18;;;;;;;;;;10316128;28;20457;-86
2023/09/10 21:08:36;;;;;;;9.40;7.90;;;;;;;;;;10330135;28;20451;-84
2023/09/10 21:13:38;;;;;;;10.80;8.00;;;;;;;;;;10320093;28;20412;-85
2023/09/10 21:18:40;;;;;;;10.38;8.05;;;;;;;;;;10319939;28;20486;-85
2023/09/10 21:23:44;;;;;;;10.95;8.43;;;;;;;;;;10329718;28;20905;-85
2023/09/10 21:28:46;;;;;;;11.38;8.45;;;;;;;;;;10330197;28;20452;-86
2023/09/10 21:33:48;;;;;;;11.35;8.90;;;;;;;;;;10334806;28;20452;-85
2023/09/10 21:38:52;;;;;;;9.55;8.52;;;;;;;;;;10335314;28;20515;-85
2023/09/10 21:43:54;;;;;;;10.45;8.50;;;;;;;;;;10332195;28;20501;-86
2023/09/10 21:48:57;;;;;;;10.10;8.00;;;;;;;;;;10334705;28;20503;-84
2023/09/10 21:54:01;;;;;;;10.07;7.87;;;;;;;;;;10336746;28;20522;-86
2023/09/10 21:59:03;;;;;;;9.07;8.18;;;;;;;;;;10339206;28;20436;-85
2023/09/10 22:04:06;;;;;;;11.82;8.32;;;;;;;;;;10339603;28;20893;-85
2023/09/10 22:09:09;;;;;;;9.07;7.90;;;;;;;;;;10343200;28;20452;-85
2023/09/10 22:14:12;;;;;;;10.80;7.88;;;;;;;;;;10341473;28;20467;-86
2023/09/10 22:19:14;;;;;;;8.75;7.85;;;;;;;;;;10342388;28;20475;-85
2023/09/10 22:24:18;;;;;;;9.13;7.85;;;;;;;;;;10338229;28;20460;-86
2023/09/10 22:29:20;;;;;;;9.10;8.00;;;;;;;;;;10341755;28;20480;-85
2023/09/10 22:34:22;;;;;;;8.98;8.07;;;;;;;;;;10343513;28;20411;-85
2023/09/10 22:39:26;;;;;;;9.20;8.20;;;;;;;;;;10340818;28;20417;-86
2023/09/10 22:44:28;;;;;;;10.32;7.70;;;;;;;;;;10339193;28;20517;-85
2023/09/10 22:49:30;;;;;;;9.10;7.65;;;;;;;;;;10338483;28;20428;-86
2023/09/10 22:54:34;;;;;;;10.40;7.33;;;;;;;;;;10342503;28;20417;-86
2023/09/10 22:59:36;;;;;;;8.63;7.50;;;;;;;;;;10342353;28;20413;-85
2023/09/10 23:04:39;;;;;;;10.33;7.60;;;;;;;;;;10379544;23;20415;-85
2023/09/10 23:09:42;;;;;;;10.13;7.72;;;;;;;;;;10377712;28;20435;-85
2023/09/10 23:14:45;;;;;;;9.30;7.80;;;;;;;;;;10377832;28;20820;-85
2023/09/10 23:19:47;;;;;;;10.05;8.50;;;;;;;;;;10383414;28;20414;-85
2023/09/10 23:24:51;;;;;;;9.20;7.63;;;;;;;;;;10377378;28;20535;-85
2023/09/10 23:29:53;;;;;;;9.05;8.02;;;;;;;;;;10380629;28;20489;-85
2023/09/10 23:34:55;;;;;;;11.35;8.70;;;;;;;;;;10372539;28;20475;-86
2023/09/10 23:39:59;;;;;;;9.30;8.40;;;;;;;;;;10370265;28;20462;-85
2023/09/10 23:45:01;;;;;;;11.82;8.57;;;;;;;;;;10382793;28;20454;-85
2023/09/10 23:50:04;;;;;;;9.93;8.17;;;;;;;;;;10379802;28;20419;-85
2023/09/10 23:55:09;;;;;;;9.57;7.80;;;;;;;;;;10377653;28;20454;-84
